sensor_id;sensor_type;location;lat;lon;timestamp;P1;durP1;ratioP1;P2;durP2;ratioP2
58250;SDS011;51449;51.676;5.812;2023-05-21T00:00:20;4.93;;;4.13;;
58250;SDS011;51449;51.676;5.812;2023-05-21T00:03:01;6.37;;;4.80;;
58250;SDS011;51449;51.676;5.812;2023-05-21T00:05:42;4.70;;;4.20;;
58250;SDS011;51449;51.676;5.812;2023-05-21T00:08:27;5.70;;;4.55;;
58250;SDS011;51449;51.676;5.812;2023-05-21T00:11:07;7.27;;;5.20;;
58250;SDS011;51449;51.676;5.812;2023-05-21T00:13:49;6.00;;;5.20;;
58250;SDS011;51449;51.676;5.812;2023-05-21T00:16:30;5.97;;;5.00;;
58250;SDS011;51449;51.676;5.812;2023-05-21T00:19:10;6.80;;;5.00;;
58250;SDS011;51449;51.676;5.812;2023-05-21T00:21:51;7.40;;;5.23;;
58250;SDS011;51449;51.676;5.812;2023-05-21T00:24:32;5.90;;;5.13;;
58250;SDS011;51449;51.676;5.812;2023-05-21T00:27:12;6.93;;;5.50;;
58250;SDS011;51449;51.676;5.812;2023-05-21T00:29:52;6.70;;;6.00;;
58250;SDS011;51449;51.676;5.812;2023-05-21T00:32:33;5.77;;;4.97;;
58250;SDS011;51449;51.676;5.812;2023-05-21T00:35:13;8.20;;;5.83;;
58250;SDS011;51449;51.676;5.812;2023-05-21T00:37:54;8.80;;;5.90;;
58250;SDS011;51449;51.676;5.812;2023-05-21T00:40:34;6.77;;;5.77;;
58250;SDS011;51449;51.676;5.812;2023-05-21T00:43:15;6.57;;;5.70;;
58250;SDS011;51449;51.676;5.812;2023-05-21T00:45:55;6.17;;;5.43;;
58250;SDS011;51449;51.676;5.812;2023-05-21T00:48:38;6.87;;;6.17;;
58250;SDS011;51449;51.676;5.812;2023-05-21T00:51:19;6.70;;;5.07;;
58250;SDS011;51449;51.676;5.812;2023-05-21T00:54:00;7.00;;;5.43;;
58250;SDS011;51449;51.676;5.812;2023-05-21T00:56:41;6.43;;;5.57;;
58250;SDS011;51449;51.676;5.812;2023-05-21T00:59:22;7.70;;;5.10;;
58250;SDS011;51449;51.676;5.812;2023-05-21T01:02:03;6.90;;;5.30;;
58250;SDS011;51449;51.676;5.812;2023-05-21T01:04:46;6.57;;;4.70;;
58250;SDS011;51449;51.676;5.812;2023-05-21T01:07:26;6.10;;;4.60;;
58250;SDS011;51449;51.676;5.812;2023-05-21T01:10:07;8.03;;;5.37;;
58250;SDS011;51449;51.676;5.812;2023-05-21T01:12:50;5.47;;;4.70;;
58250;SDS011;51449;51.676;5.812;2023-05-21T01:15:34;5.73;;;4.60;;
58250;SDS011;51449;51.676;5.812;2023-05-21T01:18:16;4.93;;;4.43;;
58250;SDS011;51449;51.676;5.812;2023-05-21T01:20:58;5.70;;;4.57;;
58250;SDS011;51449;51.676;5.812;2023-05-21T01:23:40;5.27;;;4.77;;
58250;SDS011;51449;51.676;5.812;2023-05-21T01:26:21;4.70;;;4.30;;
58250;SDS011;51449;51.676;5.812;2023-05-21T01:29:04;5.67;;;4.90;;
58250;SDS011;51449;51.676;5.812;2023-05-21T01:31:58;5.27;;;4.77;;
58250;SDS011;51449;51.676;5.812;2023-05-21T01:35:10;6.10;;;4.70;;
58250;SDS011;51449;51.676;5.812;2023-05-21T01:40:55;6.53;;;4.57;;
58250;SDS011;51449;51.676;5.812;2023-05-21T01:43:43;5.37;;;4.20;;
58250;SDS011;51449;51.676;5.812;2023-05-21T01:46:26;5.27;;;4.67;;
58250;SDS011;51449;51.676;5.812;2023-05-21T01:49:09;5.53;;;4.87;;
58250;SDS011;51449;51.676;5.812;2023-05-21T01:51:50;5.37;;;4.77;;
58250;SDS011;51449;51.676;5.812;2023-05-21T01:54:30;6.43;;;4.50;;
58250;SDS011;51449;51.676;5.812;2023-05-21T01:57:11;5.40;;;4.53;;
58250;SDS011;51449;51.676;5.812;2023-05-21T01:59:51;6.70;;;4.73;;
58250;SDS011;51449;51.676;5.812;2023-05-21T02:02:33;6.40;;;4.60;;
58250;SDS011;51449;51.676;5.812;2023-05-21T02:05:15;6.17;;;4.80;;
58250;SDS011;51449;51.676;5.812;2023-05-21T02:07:55;4.97;;;4.50;;
58250;SDS011;51449;51.676;5.812;2023-05-21T02:10:36;5.30;;;4.53;;
58250;SDS011;51449;51.676;5.812;2023-05-21T02:13:16;5.17;;;4.37;;
58250;SDS011;51449;51.676;5.812;2023-05-21T02:16:01;5.97;;;4.70;;
58250;SDS011;51449;51.676;5.812;2023-05-21T02:18:44;5.17;;;4.67;;
58250;SDS011;51449;51.676;5.812;2023-05-21T02:21:25;5.90;;;5.23;;
58250;SDS011;51449;51.676;5.812;2023-05-21T02:24:06;5.37;;;4.87;;
58250;SDS011;51449;51.676;5.812;2023-05-21T02:26:46;5.53;;;5.03;;
58250;SDS011;51449;51.676;5.812;2023-05-21T02:29:30;6.67;;;5.10;;
58250;SDS011;51449;51.676;5.812;2023-05-21T02:32:10;7.37;;;5.00;;
58250;SDS011;51449;51.676;5.812;2023-05-21T02:34:51;7.40;;;5.30;;
58250;SDS011;51449;51.676;5.812;2023-05-21T02:37:32;6.50;;;5.00;;
58250;SDS011;51449;51.676;5.812;2023-05-21T02:40:13;7.70;;;5.47;;
58250;SDS011;51449;51.676;5.812;2023-05-21T02:42:54;6.67;;;5.23;;
58250;SDS011;51449;51.676;5.812;2023-05-21T02:45:34;5.97;;;5.20;;
58250;SDS011;51449;51.676;5.812;2023-05-21T02:48:16;6.93;;;5.27;;
58250;SDS011;51449;51.676;5.812;2023-05-21T02:50:57;6.67;;;5.17;;
58250;SDS011;51449;51.676;5.812;2023-05-21T02:53:38;7.77;;;5.60;;
58250;SDS011;51449;51.676;5.812;2023-05-21T02:56:18;5.83;;;4.70;;
58250;SDS011;51449;51.676;5.812;2023-05-21T02:58:59;7.97;;;5.83;;
58250;SDS011;51449;51.676;5.812;2023-05-21T03:01:39;6.13;;;5.40;;
58250;SDS011;51449;51.676;5.812;2023-05-21T03:04:20;7.03;;;4.93;;
58250;SDS011;51449;51.676;5.812;2023-05-21T03:07:00;5.97;;;4.93;;
58250;SDS011;51449;51.676;5.812;2023-05-21T03:09:42;6.37;;;5.20;;
58250;SDS011;51449;51.676;5.812;2023-05-21T03:12:23;5.97;;;5.37;;
58250;SDS011;51449;51.676;5.812;2023-05-21T03:15:03;7.20;;;5.53;;
58250;SDS011;51449;51.676;5.812;2023-05-21T03:17:45;6.60;;;5.50;;
58250;SDS011;51449;51.676;5.812;2023-05-21T03:20:30;7.00;;;5.80;;
58250;SDS011;51449;51.676;5.812;2023-05-21T03:23:11;7.23;;;5.23;;
58250;SDS011;51449;51.676;5.812;2023-05-21T03:25:55;6.70;;;5.65;;
58250;SDS011;51449;51.676;5.812;2023-05-21T03:28:36;6.57;;;5.33;;
58250;SDS011;51449;51.676;5.812;2023-05-21T03:31:17;8.07;;;5.80;;
58250;SDS011;51449;51.676;5.812;2023-05-21T03:34:02;7.70;;;5.93;;
58250;SDS011;51449;51.676;5.812;2023-05-21T03:36:44;6.27;;;5.60;;
58250;SDS011;51449;51.676;5.812;2023-05-21T03:39:26;7.13;;;6.00;;
58250;SDS011;51449;51.676;5.812;2023-05-21T03:42:07;7.63;;;6.23;;
58250;SDS011;51449;51.676;5.812;2023-05-21T03:44:57;8.63;;;6.40;;
58250;SDS011;51449;51.676;5.812;2023-05-21T03:47:56;7.17;;;5.93;;
58250;SDS011;51449;51.676;5.812;2023-05-21T03:50:36;9.10;;;6.70;;
58250;SDS011;51449;51.676;5.812;2023-05-21T03:53:18;7.30;;;6.43;;
58250;SDS011;51449;51.676;5.812;2023-05-21T03:56:00;8.00;;;5.90;;
58250;SDS011;51449;51.676;5.812;2023-05-21T03:58:40;7.10;;;5.67;;
58250;SDS011;51449;51.676;5.812;2023-05-21T04:01:21;6.90;;;5.70;;
58250;SDS011;51449;51.676;5.812;2023-05-21T04:04:03;8.57;;;6.50;;
58250;SDS011;51449;51.676;5.812;2023-05-21T04:06:45;8.63;;;6.40;;
58250;SDS011;51449;51.676;5.812;2023-05-21T04:09:26;6.60;;;5.70;;
58250;SDS011;51449;51.676;5.812;2023-05-21T04:12:07;7.10;;;6.00;;
58250;SDS011;51449;51.676;5.812;2023-05-21T04:14:48;10.13;;;6.00;;
58250;SDS011;51449;51.676;5.812;2023-05-21T04:17:30;7.10;;;6.10;;
58250;SDS011;51449;51.676;5.812;2023-05-21T04:20:11;9.97;;;5.93;;
58250;SDS011;51449;51.676;5.812;2023-05-21T04:22:53;8.43;;;6.70;;
58250;SDS011;51449;51.676;5.812;2023-05-21T04:25:33;7.80;;;5.87;;
58250;SDS011;51449;51.676;5.812;2023-05-21T04:28:14;7.77;;;6.17;;
58250;SDS011;51449;51.676;5.812;2023-05-21T04:31:00;7.83;;;6.03;;
58250;SDS011;51449;51.676;5.812;2023-05-21T04:33:41;8.87;;;6.00;;
58250;SDS011;51449;51.676;5.812;2023-05-21T04:36:25;7.50;;;5.93;;
58250;SDS011;51449;51.676;5.812;2023-05-21T04:39:09;7.63;;;6.40;;
58250;SDS011;51449;51.676;5.812;2023-05-21T04:41:49;8.43;;;6.63;;
58250;SDS011;51449;51.676;5.812;2023-05-21T04:44:33;7.50;;;6.20;;
58250;SDS011;51449;51.676;5.812;2023-05-21T04:47:13;8.30;;;6.27;;
58250;SDS011;51449;51.676;5.812;2023-05-21T04:49:54;8.50;;;5.90;;
58250;SDS011;51449;51.676;5.812;2023-05-21T04:52:35;7.40;;;5.80;;
58250;SDS011;51449;51.676;5.812;2023-05-21T04:55:19;8.00;;;6.40;;
58250;SDS011;51449;51.676;5.812;2023-05-21T04:58:00;8.47;;;6.17;;
58250;SDS011;51449;51.676;5.812;2023-05-21T05:00:41;6.87;;;6.13;;
58250;SDS011;51449;51.676;5.812;2023-05-21T05:03:25;6.63;;;5.83;;
58250;SDS011;51449;51.676;5.812;2023-05-21T05:06:05;7.70;;;6.37;;
58250;SDS011;51449;51.676;5.812;2023-05-21T05:08:48;8.63;;;7.03;;
58250;SDS011;51449;51.676;5.812;2023-05-21T05:11:28;9.53;;;6.40;;
58250;SDS011;51449;51.676;5.812;2023-05-21T05:14:10;7.27;;;6.00;;
58250;SDS011;51449;51.676;5.812;2023-05-21T05:16:50;7.33;;;6.30;;
58250;SDS011;51449;51.676;5.812;2023-05-21T05:19:31;9.43;;;7.03;;
58250;SDS011;51449;51.676;5.812;2023-05-21T05:22:14;7.17;;;6.10;;
58250;SDS011;51449;51.676;5.812;2023-05-21T05:24:54;8.33;;;6.23;;
58250;SDS011;51449;51.676;5.812;2023-05-21T05:27:34;9.17;;;7.20;;
58250;SDS011;51449;51.676;5.812;2023-05-21T05:30:18;9.03;;;6.47;;
58250;SDS011;51449;51.676;5.812;2023-05-21T05:32:59;9.23;;;6.73;;
58250;SDS011;51449;51.676;5.812;2023-05-21T05:35:40;7.90;;;6.87;;
58250;SDS011;51449;51.676;5.812;2023-05-21T05:38:21;7.40;;;6.30;;
58250;SDS011;51449;51.676;5.812;2023-05-21T05:41:01;8.90;;;6.57;;
58250;SDS011;51449;51.676;5.812;2023-05-21T05:43:41;9.20;;;6.53;;
58250;SDS011;51449;51.676;5.812;2023-05-21T05:46:23;8.67;;;7.27;;
58250;SDS011;51449;51.676;5.812;2023-05-21T05:49:04;8.27;;;7.27;;
58250;SDS011;51449;51.676;5.812;2023-05-21T05:51:45;10.80;;;7.17;;
58250;SDS011;51449;51.676;5.812;2023-05-21T05:54:25;8.77;;;7.20;;
58250;SDS011;51449;51.676;5.812;2023-05-21T05:57:05;7.93;;;6.67;;
58250;SDS011;51449;51.676;5.812;2023-05-21T05:59:46;8.00;;;6.90;;
58250;SDS011;51449;51.676;5.812;2023-05-21T06:02:27;8.03;;;7.03;;
58250;SDS011;51449;51.676;5.812;2023-05-21T06:05:08;8.80;;;7.07;;
58250;SDS011;51449;51.676;5.812;2023-05-21T06:07:50;8.77;;;7.43;;
58250;SDS011;51449;51.676;5.812;2023-05-21T06:10:31;9.63;;;7.23;;
58250;SDS011;51449;51.676;5.812;2023-05-21T06:13:13;9.10;;;7.17;;
58250;SDS011;51449;51.676;5.812;2023-05-21T06:15:53;9.57;;;6.90;;
58250;SDS011;51449;51.676;5.812;2023-05-21T06:18:34;9.43;;;8.20;;
58250;SDS011;51449;51.676;5.812;2023-05-21T06:21:16;8.73;;;7.83;;
58250;SDS011;51449;51.676;5.812;2023-05-21T06:23:57;10.77;;;7.63;;
58250;SDS011;51449;51.676;5.812;2023-05-21T06:26:38;10.67;;;7.33;;
58250;SDS011;51449;51.676;5.812;2023-05-21T06:29:18;9.67;;;7.60;;
58250;SDS011;51449;51.676;5.812;2023-05-21T06:31:59;8.93;;;7.30;;
58250;SDS011;51449;51.676;5.812;2023-05-21T06:34:40;9.80;;;8.13;;
58250;SDS011;51449;51.676;5.812;2023-05-21T06:37:21;8.20;;;6.77;;
58250;SDS011;51449;51.676;5.812;2023-05-21T06:40:04;9.63;;;7.93;;
58250;SDS011;51449;51.676;5.812;2023-05-21T06:42:45;10.70;;;8.77;;
58250;SDS011;51449;51.676;5.812;2023-05-21T06:45:44;10.33;;;7.17;;
58250;SDS011;51449;51.676;5.812;2023-05-21T06:48:47;9.67;;;8.43;;
58250;SDS011;51449;51.676;5.812;2023-05-21T06:51:27;8.77;;;7.77;;
58250;SDS011;51449;51.676;5.812;2023-05-21T06:54:08;10.17;;;7.87;;
58250;SDS011;51449;51.676;5.812;2023-05-21T06:56:51;8.80;;;7.90;;
58250;SDS011;51449;51.676;5.812;2023-05-21T06:59:31;10.33;;;7.53;;
58250;SDS011;51449;51.676;5.812;2023-05-21T07:02:12;10.83;;;7.97;;
58250;SDS011;51449;51.676;5.812;2023-05-21T07:04:52;9.57;;;8.57;;
58250;SDS011;51449;51.676;5.812;2023-05-21T07:07:34;9.97;;;7.77;;
58250;SDS011;51449;51.676;5.812;2023-05-21T07:10:15;9.50;;;7.50;;
58250;SDS011;51449;51.676;5.812;2023-05-21T07:12:55;11.23;;;8.37;;
58250;SDS011;51449;51.676;5.812;2023-05-21T07:15:36;9.57;;;8.57;;
58250;SDS011;51449;51.676;5.812;2023-05-21T07:18:17;9.63;;;8.20;;
58250;SDS011;51449;51.676;5.812;2023-05-21T07:20:58;10.67;;;8.37;;
58250;SDS011;51449;51.676;5.812;2023-05-21T07:23:39;11.37;;;8.40;;
58250;SDS011;51449;51.676;5.812;2023-05-21T07:26:20;10.43;;;8.70;;
58250;SDS011;51449;51.676;5.812;2023-05-21T07:29:01;9.20;;;8.07;;
58250;SDS011;51449;51.676;5.812;2023-05-21T07:31:42;10.23;;;8.47;;
58250;SDS011;51449;51.676;5.812;2023-05-21T07:34:23;10.77;;;8.57;;
58250;SDS011;51449;51.676;5.812;2023-05-21T07:37:04;10.47;;;8.53;;
58250;SDS011;51449;51.676;5.812;2023-05-21T07:39:44;12.03;;;8.77;;
58250;SDS011;51449;51.676;5.812;2023-05-21T07:42:25;11.03;;;8.57;;
58250;SDS011;51449;51.676;5.812;2023-05-21T07:45:07;9.50;;;8.57;;
58250;SDS011;51449;51.676;5.812;2023-05-21T07:47:53;10.40;;;8.63;;
58250;SDS011;51449;51.676;5.812;2023-05-21T07:50:33;10.13;;;8.07;;
58250;SDS011;51449;51.676;5.812;2023-05-21T07:53:14;11.67;;;8.93;;
58250;SDS011;51449;51.676;5.812;2023-05-21T07:55:55;9.70;;;8.70;;
58250;SDS011;51449;51.676;5.812;2023-05-21T07:58:39;11.02;;;9.10;;
58250;SDS011;51449;51.676;5.812;2023-05-21T08:01:20;11.50;;;8.40;;
58250;SDS011;51449;51.676;5.812;2023-05-21T08:04:01;10.70;;;8.85;;
58250;SDS011;51449;51.676;5.812;2023-05-21T08:06:47;11.98;;;9.48;;
58250;SDS011;51449;51.676;5.812;2023-05-21T08:09:27;11.13;;;9.23;;
58250;SDS011;51449;51.676;5.812;2023-05-21T08:12:09;11.98;;;9.32;;
58250;SDS011;51449;51.676;5.812;2023-05-21T08:14:56;10.25;;;9.07;;
58250;SDS011;51449;51.676;5.812;2023-05-21T08:17:37;9.80;;;8.70;;
58250;SDS011;51449;51.676;5.812;2023-05-21T08:20:18;10.82;;;8.95;;
58250;SDS011;51449;51.676;5.812;2023-05-21T08:23:00;12.55;;;10.43;;
58250;SDS011;51449;51.676;5.812;2023-05-21T08:25:48;11.05;;;9.25;;
58250;SDS011;51449;51.676;5.812;2023-05-21T08:28:29;13.30;;;10.60;;
58250;SDS011;51449;51.676;5.812;2023-05-21T08:31:11;11.95;;;8.98;;
58250;SDS011;51449;51.676;5.812;2023-05-21T08:33:52;13.43;;;9.27;;
58250;SDS011;51449;51.676;5.812;2023-05-21T08:36:47;14.95;;;11.07;;
58250;SDS011;51449;51.676;5.812;2023-05-21T08:39:47;14.13;;;9.75;;
58250;SDS011;51449;51.676;5.812;2023-05-21T08:45:20;10.30;;;9.20;;
58250;SDS011;51449;51.676;5.812;2023-05-21T08:48:03;14.18;;;9.85;;
58250;SDS011;51449;51.676;5.812;2023-05-21T08:50:46;10.93;;;8.80;;
58250;SDS011;51449;51.676;5.812;2023-05-21T08:53:32;11.18;;;9.27;;
58250;SDS011;51449;51.676;5.812;2023-05-21T08:56:15;10.82;;;8.77;;
58250;SDS011;51449;51.676;5.812;2023-05-21T08:59:01;11.00;;;9.15;;
58250;SDS011;51449;51.676;5.812;2023-05-21T09:01:47;11.98;;;9.05;;
58250;SDS011;51449;51.676;5.812;2023-05-21T09:04:35;12.68;;;9.52;;
58250;SDS011;51449;51.676;5.812;2023-05-21T09:07:18;12.27;;;9.57;;
58250;SDS011;51449;51.676;5.812;2023-05-21T09:10:20;11.15;;;9.75;;
58250;SDS011;51449;51.676;5.812;2023-05-21T09:13:08;12.10;;;10.40;;
58250;SDS011;51449;51.676;5.812;2023-05-21T09:15:50;11.82;;;10.60;;
58250;SDS011;51449;51.676;5.812;2023-05-21T09:18:32;12.52;;;10.57;;
58250;SDS011;51449;51.676;5.812;2023-05-21T09:24:08;14.85;;;10.15;;
58250;SDS011;51449;51.676;5.812;2023-05-21T09:26:50;14.40;;;11.45;;
58250;SDS011;51449;51.676;5.812;2023-05-21T09:29:32;13.77;;;10.98;;
58250;SDS011;51449;51.676;5.812;2023-05-21T09:32:16;13.35;;;11.25;;
58250;SDS011;51449;51.676;5.812;2023-05-21T09:34:56;13.10;;;11.38;;
58250;SDS011;51449;51.676;5.812;2023-05-21T09:37:50;16.38;;;11.75;;
58250;SDS011;51449;51.676;5.812;2023-05-21T09:40:33;13.20;;;11.40;;
58250;SDS011;51449;51.676;5.812;2023-05-21T09:43:15;13.00;;;11.25;;
58250;SDS011;51449;51.676;5.812;2023-05-21T09:45:56;15.07;;;12.88;;
58250;SDS011;51449;51.676;5.812;2023-05-21T09:48:44;14.15;;;12.35;;
58250;SDS011;51449;51.676;5.812;2023-05-21T09:51:27;16.40;;;12.38;;
58250;SDS011;51449;51.676;5.812;2023-05-21T09:54:08;15.07;;;11.95;;
58250;SDS011;51449;51.676;5.812;2023-05-21T09:56:50;15.13;;;12.27;;
58250;SDS011;51449;51.676;5.812;2023-05-21T09:59:38;16.58;;;12.55;;
58250;SDS011;51449;51.676;5.812;2023-05-21T10:02:21;16.15;;;13.38;;
58250;SDS011;51449;51.676;5.812;2023-05-21T10:05:03;16.63;;;12.55;;
58250;SDS011;51449;51.676;5.812;2023-05-21T10:07:48;15.63;;;12.60;;
58250;SDS011;51449;51.676;5.812;2023-05-21T10:10:30;18.10;;;12.93;;
58250;SDS011;51449;51.676;5.812;2023-05-21T10:13:11;16.73;;;13.13;;
58250;SDS011;51449;51.676;5.812;2023-05-21T10:16:00;15.73;;;12.95;;
58250;SDS011;51449;51.676;5.812;2023-05-21T10:18:42;15.70;;;13.20;;
58250;SDS011;51449;51.676;5.812;2023-05-21T10:21:26;14.43;;;12.68;;
58250;SDS011;51449;51.676;5.812;2023-05-21T10:24:10;16.83;;;12.60;;
58250;SDS011;51449;51.676;5.812;2023-05-21T10:26:52;15.18;;;12.88;;
58250;SDS011;51449;51.676;5.812;2023-05-21T10:29:33;15.43;;;13.05;;
58250;SDS011;51449;51.676;5.812;2023-05-21T10:32:16;15.80;;;12.95;;
58250;SDS011;51449;51.676;5.812;2023-05-21T10:34:59;15.88;;;12.82;;
58250;SDS011;51449;51.676;5.812;2023-05-21T10:37:44;15.70;;;13.82;;
58250;SDS011;51449;51.676;5.812;2023-05-21T10:40:25;16.35;;;12.93;;
58250;SDS011;51449;51.676;5.812;2023-05-21T10:43:17;15.75;;;13.38;;
58250;SDS011;51449;51.676;5.812;2023-05-21T10:56:00;18.52;;;13.77;;
58250;SDS011;51449;51.676;5.812;2023-05-21T11:02:05;17.92;;;14.02;;
58250;SDS011;51449;51.676;5.812;2023-05-21T11:04:46;17.80;;;14.05;;
58250;SDS011;51449;51.676;5.812;2023-05-21T11:10:36;18.13;;;13.68;;
58250;SDS011;51449;51.676;5.812;2023-05-21T11:13:20;15.27;;;13.43;;
58250;SDS011;51449;51.676;5.812;2023-05-21T11:21:21;16.60;;;13.63;;
58250;SDS011;51449;51.676;5.812;2023-05-21T11:24:07;17.77;;;14.35;;
58250;SDS011;51449;51.676;5.812;2023-05-21T11:29:34;18.98;;;14.27;;
58250;SDS011;51449;51.676;5.812;2023-05-21T11:32:20;16.77;;;14.15;;
58250;SDS011;51449;51.676;5.812;2023-05-21T11:35:02;18.33;;;14.07;;
58250;SDS011;51449;51.676;5.812;2023-05-21T11:37:43;16.33;;;13.98;;
58250;SDS011;51449;51.676;5.812;2023-05-21T11:40:33;17.10;;;13.93;;
58250;SDS011;51449;51.676;5.812;2023-05-21T11:43:15;16.85;;;14.80;;
58250;SDS011;51449;51.676;5.812;2023-05-21T11:45:57;19.30;;;14.70;;
58250;SDS011;51449;51.676;5.812;2023-05-21T11:48:38;18.33;;;15.15;;
58250;SDS011;51449;51.676;5.812;2023-05-21T11:51:19;18.45;;;13.45;;
58250;SDS011;51449;51.676;5.812;2023-05-21T11:54:00;17.40;;;14.52;;
58250;SDS011;51449;51.676;5.812;2023-05-21T11:56:41;19.60;;;14.48;;
58250;SDS011;51449;51.676;5.812;2023-05-21T11:59:22;18.55;;;14.15;;
58250;SDS011;51449;51.676;5.812;2023-05-21T12:02:02;15.63;;;13.13;;
58250;SDS011;51449;51.676;5.812;2023-05-21T12:04:44;17.05;;;14.38;;
58250;SDS011;51449;51.676;5.812;2023-05-21T12:07:27;17.95;;;15.82;;
58250;SDS011;51449;51.676;5.812;2023-05-21T12:10:11;17.95;;;14.27;;
58250;SDS011;51449;51.676;5.812;2023-05-21T12:12:52;16.73;;;13.65;;
58250;SDS011;51449;51.676;5.812;2023-05-21T12:15:36;16.20;;;13.20;;
58250;SDS011;51449;51.676;5.812;2023-05-21T12:18:16;17.98;;;14.30;;
58250;SDS011;51449;51.676;5.812;2023-05-21T12:20:57;16.55;;;14.18;;
58250;SDS011;51449;51.676;5.812;2023-05-21T12:23:37;17.88;;;14.38;;
58250;SDS011;51449;51.676;5.812;2023-05-21T12:26:17;17.30;;;14.30;;
58250;SDS011;51449;51.676;5.812;2023-05-21T12:28:57;16.83;;;14.82;;
58250;SDS011;51449;51.676;5.812;2023-05-21T12:31:47;16.55;;;13.90;;
58250;SDS011;51449;51.676;5.812;2023-05-21T12:37:30;14.65;;;12.93;;
58250;SDS011;51449;51.676;5.812;2023-05-21T12:40:11;17.88;;;13.93;;
58250;SDS011;51449;51.676;5.812;2023-05-21T12:42:52;16.58;;;13.10;;
58250;SDS011;51449;51.676;5.812;2023-05-21T12:45:32;16.77;;;13.82;;
58250;SDS011;51449;51.676;5.812;2023-05-21T12:48:13;18.55;;;13.25;;
58250;SDS011;51449;51.676;5.812;2023-05-21T12:50:53;16.52;;;14.15;;
58250;SDS011;51449;51.676;5.812;2023-05-21T12:53:37;18.42;;;13.65;;
58250;SDS011;51449;51.676;5.812;2023-05-21T12:56:17;17.80;;;13.13;;
58250;SDS011;51449;51.676;5.812;2023-05-21T12:58:57;16.00;;;13.50;;
58250;SDS011;51449;51.676;5.812;2023-05-21T13:01:38;18.02;;;14.52;;
58250;SDS011;51449;51.676;5.812;2023-05-21T13:04:18;17.45;;;13.57;;
58250;SDS011;51449;51.676;5.812;2023-05-21T13:06:59;16.55;;;13.52;;
58250;SDS011;51449;51.676;5.812;2023-05-21T13:09:43;15.80;;;13.55;;
58250;SDS011;51449;51.676;5.812;2023-05-21T13:12:24;16.20;;;13.50;;
58250;SDS011;51449;51.676;5.812;2023-05-21T13:15:06;15.52;;;13.52;;
58250;SDS011;51449;51.676;5.812;2023-05-21T13:17:47;18.02;;;14.25;;
58250;SDS011;51449;51.676;5.812;2023-05-21T13:20:30;16.27;;;13.38;;
58250;SDS011;51449;51.676;5.812;2023-05-21T13:23:11;17.40;;;14.45;;
58250;SDS011;51449;51.676;5.812;2023-05-21T13:25:51;16.88;;;14.05;;
58250;SDS011;51449;51.676;5.812;2023-05-21T13:28:31;16.08;;;13.60;;
58250;SDS011;51449;51.676;5.812;2023-05-21T13:31:12;18.02;;;14.18;;
58250;SDS011;51449;51.676;5.812;2023-05-21T13:33:54;16.65;;;13.23;;
58250;SDS011;51449;51.676;5.812;2023-05-21T13:36:35;16.80;;;14.38;;
58250;SDS011;51449;51.676;5.812;2023-05-21T13:39:15;19.35;;;14.60;;
58250;SDS011;51449;51.676;5.812;2023-05-21T13:41:56;16.30;;;13.48;;
58250;SDS011;51449;51.676;5.812;2023-05-21T13:44:36;17.40;;;13.85;;
58250;SDS011;51449;51.676;5.812;2023-05-21T13:47:17;18.13;;;13.73;;
58250;SDS011;51449;51.676;5.812;2023-05-21T13:49:57;16.92;;;13.25;;
58250;SDS011;51449;51.676;5.812;2023-05-21T13:52:38;16.88;;;13.40;;
58250;SDS011;51449;51.676;5.812;2023-05-21T13:55:19;17.98;;;13.85;;
58250;SDS011;51449;51.676;5.812;2023-05-21T13:57:59;17.10;;;13.85;;
58250;SDS011;51449;51.676;5.812;2023-05-21T14:00:40;15.30;;;12.80;;
58250;SDS011;51449;51.676;5.812;2023-05-21T14:03:22;14.63;;;12.63;;
58250;SDS011;51449;51.676;5.812;2023-05-21T14:06:02;15.02;;;12.63;;
58250;SDS011;51449;51.676;5.812;2023-05-21T14:08:44;16.42;;;12.73;;
58250;SDS011;51449;51.676;5.812;2023-05-21T14:11:26;15.52;;;12.38;;
58250;SDS011;51449;51.676;5.812;2023-05-21T14:14:07;15.48;;;12.82;;
58250;SDS011;51449;51.676;5.812;2023-05-21T14:16:50;14.15;;;12.35;;
58250;SDS011;51449;51.676;5.812;2023-05-21T14:19:31;16.45;;;13.35;;
58250;SDS011;51449;51.676;5.812;2023-05-21T14:22:12;16.30;;;13.27;;
58250;SDS011;51449;51.676;5.812;2023-05-21T14:24:52;16.48;;;13.10;;
58250;SDS011;51449;51.676;5.812;2023-05-21T14:27:32;16.02;;;13.65;;
58250;SDS011;51449;51.676;5.812;2023-05-21T14:30:14;16.90;;;13.20;;
58250;SDS011;51449;51.676;5.812;2023-05-21T14:32:55;15.05;;;12.80;;
58250;SDS011;51449;51.676;5.812;2023-05-21T14:35:39;15.65;;;13.57;;
58250;SDS011;51449;51.676;5.812;2023-05-21T14:38:22;14.35;;;12.43;;
58250;SDS011;51449;51.676;5.812;2023-05-21T14:41:03;15.35;;;13.57;;
58250;SDS011;51449;51.676;5.812;2023-05-21T14:43:44;13.90;;;12.25;;
58250;SDS011;51449;51.676;5.812;2023-05-21T14:46:25;14.70;;;11.82;;
58250;SDS011;51449;51.676;5.812;2023-05-21T14:49:06;15.77;;;12.98;;
58250;SDS011;51449;51.676;5.812;2023-05-21T14:51:47;16.65;;;12.90;;
58250;SDS011;51449;51.676;5.812;2023-05-21T14:54:28;15.25;;;13.15;;
58250;SDS011;51449;51.676;5.812;2023-05-21T14:57:08;15.38;;;12.93;;
58250;SDS011;51449;51.676;5.812;2023-05-21T14:59:49;14.63;;;13.05;;
58250;SDS011;51449;51.676;5.812;2023-05-21T15:02:29;16.08;;;13.07;;
58250;SDS011;51449;51.676;5.812;2023-05-21T15:05:10;16.98;;;13.30;;
58250;SDS011;51449;51.676;5.812;2023-05-21T15:07:52;14.63;;;12.70;;
58250;SDS011;51449;51.676;5.812;2023-05-21T15:10:36;14.65;;;12.57;;
58250;SDS011;51449;51.676;5.812;2023-05-21T15:13:17;15.93;;;12.23;;
58250;SDS011;51449;51.676;5.812;2023-05-21T15:15:57;14.43;;;12.70;;
58250;SDS011;51449;51.676;5.812;2023-05-21T15:18:38;13.82;;;12.30;;
58250;SDS011;51449;51.676;5.812;2023-05-21T15:21:19;14.27;;;12.70;;
58250;SDS011;51449;51.676;5.812;2023-05-21T15:24:01;14.75;;;13.13;;
58250;SDS011;51449;51.676;5.812;2023-05-21T15:26:41;13.43;;;12.02;;
58250;SDS011;51449;51.676;5.812;2023-05-21T15:29:22;16.00;;;12.80;;
58250;SDS011;51449;51.676;5.812;2023-05-21T15:32:02;13.75;;;12.25;;
58250;SDS011;51449;51.676;5.812;2023-05-21T15:34:44;14.95;;;12.63;;
58250;SDS011;51449;51.676;5.812;2023-05-21T15:37:26;16.65;;;14.13;;
58250;SDS011;51449;51.676;5.812;2023-05-21T15:40:07;14.18;;;12.57;;
58250;SDS011;51449;51.676;5.812;2023-05-21T15:42:48;15.07;;;12.18;;
58250;SDS011;51449;51.676;5.812;2023-05-21T15:45:28;14.40;;;12.02;;
58250;SDS011;51449;51.676;5.812;2023-05-21T15:48:09;14.15;;;12.23;;
58250;SDS011;51449;51.676;5.812;2023-05-21T15:50:53;15.20;;;12.57;;
58250;SDS011;51449;51.676;5.812;2023-05-21T15:53:34;13.82;;;12.30;;
58250;SDS011;51449;51.676;5.812;2023-05-21T15:56:14;17.55;;;12.00;;
58250;SDS011;51449;51.676;5.812;2023-05-21T15:58:56;17.60;;;14.68;;
58250;SDS011;51449;51.676;5.812;2023-05-21T16:01:40;14.43;;;11.50;;
58250;SDS011;51449;51.676;5.812;2023-05-21T16:04:21;13.90;;;12.15;;
58250;SDS011;51449;51.676;5.812;2023-05-21T16:07:02;17.13;;;13.55;;
58250;SDS011;51449;51.676;5.812;2023-05-21T16:09:43;15.82;;;12.93;;
58250;SDS011;51449;51.676;5.812;2023-05-21T16:12:23;15.48;;;12.32;;
58250;SDS011;51449;51.676;5.812;2023-05-21T16:15:05;15.77;;;13.07;;
58250;SDS011;51449;51.676;5.812;2023-05-21T16:17:46;13.88;;;12.25;;
58250;SDS011;51449;51.676;5.812;2023-05-21T16:20:27;15.18;;;12.70;;
58250;SDS011;51449;51.676;5.812;2023-05-21T16:23:09;15.30;;;12.88;;
58250;SDS011;51449;51.676;5.812;2023-05-21T16:25:52;13.80;;;12.30;;
58250;SDS011;51449;51.676;5.812;2023-05-21T16:28:32;17.52;;;13.13;;
58250;SDS011;51449;51.676;5.812;2023-05-21T16:31:13;14.25;;;12.68;;
58250;SDS011;51449;51.676;5.812;2023-05-21T16:33:54;16.65;;;12.57;;
58250;SDS011;51449;51.676;5.812;2023-05-21T16:36:34;12.88;;;11.50;;